createdAt,value
2018-01-27T00:01:47.638Z,13.90
2018-01-27T00:04:15.170Z,10.15
2018-01-27T00:06:43.183Z,11.07
2018-01-27T00:09:10.632Z,10.52
2018-01-27T00:11:38.132Z,9.80
2018-01-27T00:14:05.591Z,11.35
2018-01-27T00:16:33.029Z,15.00
2018-01-27T00:19:00.487Z,10.98
2018-01-27T00:21:27.955Z,11.85
2018-01-27T00:23:55.791Z,14.50
2018-01-27T00:26:23.299Z,13.35
2018-01-27T00:28:50.744Z,14.43
2018-01-27T00:31:18.239Z,12.23
2018-01-27T00:33:45.706Z,13.90
2018-01-27T00:36:13.185Z,14.27
2018-01-27T00:38:40.637Z,11.70
2018-01-27T00:41:08.110Z,11.12
2018-01-27T00:43:35.552Z,10.40
2018-01-27T00:46:03.012Z,10.15
2018-01-27T00:48:30.470Z,11.15
2018-01-27T00:50:57.925Z,10.30
2018-01-27T00:53:25.395Z,12.00
2018-01-27T00:55:52.849Z,12.52
2018-01-27T00:58:20.289Z,12.57
2018-01-27T01:00:47.742Z,11.55
2018-01-27T01:03:15.203Z,11.48
2018-01-27T01:05:42.658Z,12.02
2018-01-27T01:08:10.106Z,11.88
2018-01-27T01:10:37.552Z,11.73
2018-01-27T01:13:05.031Z,12.75
2018-01-27T01:15:32.477Z,12.30
2018-01-27T01:17:59.942Z,12.55
2018-01-27T01:20:27.402Z,11.00
2018-01-27T01:22:54.865Z,10.27
2018-01-27T01:25:23.111Z,11.25
2018-01-27T01:27:50.563Z,10.73
2018-01-27T01:30:18.815Z,10.07
2018-01-27T01:32:46.261Z,10.07
2018-01-27T01:35:13.712Z,10.75
2018-01-27T01:37:41.182Z,10.75
2018-01-27T01:40:08.648Z,10.93
2018-01-27T01:45:42.216Z,10.80
2018-01-27T01:48:09.712Z,11.12
2018-01-27T01:50:37.174Z,11.75
2018-01-27T01:53:04.643Z,10.57
2018-01-27T01:55:32.856Z,11.35
2018-01-27T01:58:00.318Z,9.30
2018-01-27T02:00:27.795Z,10.55
2018-01-27T02:02:55.250Z,10.25
2018-01-27T02:05:22.721Z,10.23
2018-01-27T02:07:50.949Z,11.45
2018-01-27T02:10:18.408Z,11.77
2018-01-27T02:12:45.873Z,11.07
2018-01-27T02:15:13.332Z,10.27
2018-01-27T02:17:40.809Z,11.55
2018-01-27T02:20:08.260Z,11.30
2018-01-27T02:22:35.713Z,11.93
2018-01-27T02:25:03.174Z,11.68
2018-01-27T02:27:31.399Z,12.10
2018-01-27T02:29:59.618Z,11.68
2018-01-27T02:32:27.070Z,10.95
2018-01-27T02:34:54.534Z,10.65
2018-01-27T02:37:21.999Z,11.55
2018-01-27T02:39:49.444Z,13.80
2018-01-27T02:42:16.901Z,13.65
2018-01-27T02:44:44.377Z,14.80
2018-01-27T02:47:11.866Z,13.90
2018-01-27T02:49:40.108Z,14.05
2018-01-27T02:52:07.554Z,13.10
2018-01-27T02:54:35.338Z,11.12
2018-01-27T02:57:03.590Z,11.40
2018-01-27T02:59:31.037Z,12.32
2018-01-27T03:01:58.499Z,11.20
2018-01-27T03:04:25.952Z,11.07
2018-01-27T03:06:53.400Z,10.65
2018-01-27T03:09:20.871Z,11.55
2018-01-27T03:11:48.326Z,12.15
2018-01-27T03:14:15.786Z,10.00
2018-01-27T03:16:43.255Z,11.27
2018-01-27T03:19:10.711Z,12.43
2018-01-27T03:21:38.173Z,11.23
2018-01-27T03:24:05.638Z,12.10
2018-01-27T03:26:33.096Z,11.52
2018-01-27T03:29:00.545Z,10.88
2018-01-27T03:31:27.996Z,10.98
2018-01-27T03:33:55.440Z,11.90
2018-01-27T03:36:22.900Z,10.13
2018-01-27T03:38:50.377Z,10.07
2018-01-27T03:41:18.221Z,11.55
2018-01-27T03:43:46.076Z,11.18
2018-01-27T03:46:13.535Z,11.52
2018-01-27T03:48:40.999Z,10.30
2018-01-27T03:51:08.466Z,12.40
2018-01-27T03:53:35.925Z,10.95
2018-01-27T03:56:03.392Z,10.70
2018-01-27T03:58:30.846Z,11.63
2018-01-27T04:00:58.300Z,11.60
2018-01-27T04:03:25.756Z,12.27
2018-01-27T04:05:53.220Z,11.80
2018-01-27T04:08:20.683Z,11.25
2018-01-27T04:10:48.156Z,11.75
2018-01-27T04:13:16.377Z,11.43
2018-01-27T04:15:43.840Z,12.37
2018-01-27T04:18:11.289Z,10.32
2018-01-27T04:20:38.756Z,12.40
2018-01-27T04:23:06.207Z,11.73
2018-01-27T04:25:33.668Z,11.77
2018-01-27T04:28:01.138Z,11.90
2018-01-27T04:30:28.599Z,11.38
2018-01-27T04:32:56.051Z,11.75
2018-01-27T04:35:23.516Z,11.98
2018-01-27T04:37:50.979Z,11.85
2018-01-27T04:40:18.440Z,11.57
2018-01-27T04:42:46.300Z,11.68
2018-01-27T04:45:14.155Z,12.25
2018-01-27T04:47:41.604Z,11.70
2018-01-27T04:50:09.066Z,13.40
2018-01-27T04:52:36.527Z,11.85
2018-01-27T04:55:03.990Z,11.10
2018-01-27T04:57:31.441Z,15.93
2018-01-27T04:59:58.959Z,11.55
2018-01-27T05:02:26.477Z,11.55
2018-01-27T05:04:54.699Z,11.25
2018-01-27T05:07:22.156Z,12.35
2018-01-27T05:09:49.618Z,11.98
2018-01-27T05:12:17.097Z,10.23
2018-01-27T05:14:44.562Z,11.60
2018-01-27T05:17:12.012Z,11.80
2018-01-27T05:19:39.460Z,12.25
2018-01-27T05:22:06.911Z,12.10
2018-01-27T05:24:34.374Z,11.85
2018-01-27T05:27:01.832Z,12.90
2018-01-27T05:29:29.297Z,14.27
2018-01-27T05:31:56.760Z,15.85
2018-01-27T05:34:24.222Z,15.48
2018-01-27T05:36:51.689Z,14.30
2018-01-27T05:39:19.134Z,15.88
2018-01-27T05:41:46.994Z,14.70
2018-01-27T05:44:14.458Z,13.75
2018-01-27T05:46:42.300Z,12.90
2018-01-27T05:49:09.766Z,14.20
2018-01-27T05:51:37.231Z,15.00
2018-01-27T05:54:04.671Z,14.15
2018-01-27T05:56:32.137Z,13.52
2018-01-27T05:58:59.585Z,12.75
2018-01-27T06:01:27.039Z,13.57
2018-01-27T06:03:54.487Z,11.75
2018-01-27T06:06:21.965Z,12.30
2018-01-27T06:08:49.434Z,12.18
2018-01-27T06:11:16.883Z,11.30
2018-01-27T06:13:44.341Z,11.95
2018-01-27T06:16:11.806Z,12.52
2018-01-27T06:18:39.272Z,10.90
2018-01-27T06:21:07.497Z,10.75
2018-01-27T06:23:34.940Z,10.60
2018-01-27T06:26:02.399Z,10.73
2018-01-27T06:28:29.865Z,10.85
2018-01-27T06:30:57.324Z,11.65
2018-01-27T06:33:24.773Z,11.02
2018-01-27T06:35:52.223Z,11.00
2018-01-27T06:38:19.686Z,11.30
2018-01-27T06:40:47.134Z,12.07
2018-01-27T06:43:14.592Z,10.43
2018-01-27T06:45:42.064Z,10.60
2018-01-27T06:48:09.522Z,11.80
2018-01-27T06:50:36.973Z,12.25
2018-01-27T06:53:04.440Z,11.55
2018-01-27T06:55:31.908Z,12.40
2018-01-27T06:57:59.367Z,12.50
2018-01-27T07:00:26.817Z,12.75
2018-01-27T07:02:54.268Z,13.18
2018-01-27T07:05:21.722Z,13.18
2018-01-27T07:07:49.183Z,12.77
2018-01-27T07:10:16.625Z,13.60
2018-01-27T07:12:44.082Z,12.65
2018-01-27T07:15:11.541Z,13.05
2018-01-27T07:17:38.992Z,13.70
2018-01-27T07:20:06.459Z,12.85
2018-01-27T07:22:33.917Z,15.77
2018-01-27T07:25:01.375Z,14.20
2018-01-27T07:27:28.829Z,13.27
2018-01-27T07:29:56.277Z,14.40
2018-01-27T07:32:23.746Z,13.88
2018-01-27T07:34:51.204Z,13.93
2018-01-27T07:37:18.663Z,13.62
2018-01-27T07:39:46.117Z,13.05
2018-01-27T07:42:13.582Z,10.68
2018-01-27T07:44:41.804Z,11.70
2018-01-27T07:47:09.646Z,12.90
2018-01-27T07:49:37.104Z,12.68
2018-01-27T07:52:05.320Z,13.00
2018-01-27T07:54:32.798Z,12.95
2018-01-27T07:57:00.270Z,12.37
2018-01-27T07:59:27.720Z,12.48
2018-01-27T08:01:55.190Z,12.20
2018-01-27T08:04:22.658Z,11.02
2018-01-27T08:06:50.112Z,12.13
2018-01-27T08:09:17.569Z,11.32
2018-01-27T08:11:45.025Z,10.82
2018-01-27T08:14:12.478Z,11.98
2018-01-27T08:16:39.924Z,11.00
2018-01-27T08:19:07.394Z,10.80
2018-01-27T08:21:34.866Z,11.93
2018-01-27T08:24:03.095Z,12.73
2018-01-27T08:26:30.558Z,12.43
2018-01-27T08:28:58.028Z,11.98
2018-01-27T08:31:25.499Z,10.88
2018-01-27T08:33:52.958Z,11.15
2018-01-27T08:36:20.407Z,11.20
2018-01-27T08:38:47.888Z,15.95
2018-01-27T08:41:16.122Z,14.85
2018-01-27T08:43:43.588Z,16.05
2018-01-27T08:46:11.055Z,18.37
2018-01-27T08:48:40.023Z,17.27
2018-01-27T08:51:07.485Z,17.85
2018-01-27T08:53:34.953Z,18.45
2018-01-27T08:56:02.422Z,29.12
2018-01-27T08:58:29.886Z,16.10
2018-01-27T09:00:58.116Z,19.33
2018-01-27T09:03:25.607Z,20.27
2018-01-27T09:05:53.081Z,16.00
2018-01-27T09:08:21.305Z,14.50
2018-01-27T09:10:48.775Z,15.57
2018-01-27T09:13:16.245Z,14.95
2018-01-27T09:15:43.721Z,18.67
2018-01-27T09:18:11.961Z,28.33
2018-01-27T09:20:39.421Z,36.83
2018-01-27T09:23:06.894Z,28.45
2018-01-27T09:25:34.349Z,34.85
2018-01-27T09:28:01.811Z,35.78
2018-01-27T09:30:29.272Z,25.35
2018-01-27T09:32:57.510Z,20.80
2018-01-27T09:35:25.026Z,19.80
2018-01-27T09:37:52.494Z,18.07
2018-01-27T09:40:23.645Z,19.83
2018-01-27T09:42:51.138Z,24.30
2018-01-27T09:45:18.597Z,17.17
2018-01-27T09:47:46.115Z,19.77
2018-01-27T09:50:13.940Z,31.48
2018-01-27T09:52:43.319Z,19.15
2018-01-27T09:55:10.772Z,18.10
2018-01-27T09:57:38.232Z,18.27
2018-01-27T10:00:05.697Z,19.33
2018-01-27T10:02:33.179Z,23.07
2018-01-27T10:05:01.411Z,16.97
2018-01-27T10:07:28.869Z,27.70
2018-01-27T10:09:56.317Z,17.07
2018-01-27T10:12:23.776Z,18.57
2018-01-27T10:14:51.251Z,19.17
2018-01-27T10:17:18.712Z,21.03
2018-01-27T10:19:46.931Z,20.10
2018-01-27T10:22:14.406Z,13.75
2018-01-27T10:24:41.864Z,12.93
2018-01-27T10:27:09.332Z,13.33
2018-01-27T10:29:36.792Z,15.70
2018-01-27T10:32:04.286Z,22.23
2018-01-27T10:34:31.742Z,13.97
2018-01-27T10:36:59.210Z,13.70
2018-01-27T10:39:26.666Z,13.60
2018-01-27T10:41:54.127Z,13.90
2018-01-27T10:44:22.352Z,14.30
2018-01-27T10:46:53.582Z,19.10
2018-01-27T10:49:21.063Z,21.00
2018-01-27T10:51:48.536Z,21.23
2018-01-27T10:54:16.385Z,15.93
2018-01-27T10:56:43.891Z,14.57
2018-01-27T10:59:11.382Z,14.07
2018-01-27T11:01:38.849Z,13.97
2018-01-27T11:04:06.316Z,14.00
2018-01-27T11:06:33.928Z,17.00
2018-01-27T11:09:02.154Z,13.40
2018-01-27T11:11:29.620Z,20.00
2018-01-27T11:13:57.297Z,16.03
2018-01-27T11:16:39.652Z,13.50
2018-01-27T11:19:07.138Z,13.50
2018-01-27T11:21:35.364Z,12.47
2018-01-27T11:24:02.822Z,11.87
2018-01-27T11:26:30.279Z,10.47
2018-01-27T11:28:57.731Z,12.80
2018-01-27T11:31:25.204Z,13.60
2018-01-27T11:33:52.659Z,12.73
2018-01-27T11:36:20.105Z,12.43
2018-01-27T11:38:47.585Z,12.00
2018-01-27T11:41:15.048Z,13.30
2018-01-27T11:43:42.495Z,12.17
2018-01-27T11:46:10.725Z,13.10
2018-01-27T11:48:38.944Z,13.27
2018-01-27T11:51:06.397Z,13.03
2018-01-27T11:53:33.863Z,13.20
2018-01-27T11:56:01.340Z,12.73
2018-01-27T11:58:28.800Z,12.27
2018-01-27T12:00:56.660Z,13.20
2018-01-27T12:03:24.130Z,15.10
2018-01-27T12:05:51.610Z,15.17
2018-01-27T12:08:19.828Z,14.90
2018-01-27T12:10:47.345Z,14.23
2018-01-27T12:13:14.779Z,14.17
2018-01-27T12:15:42.253Z,13.03
2018-01-27T12:18:09.713Z,13.73
2018-01-27T12:20:37.178Z,11.27
2018-01-27T12:23:05.634Z,12.83
2018-01-27T12:25:33.160Z,13.00
2018-01-27T12:28:00.616Z,12.60
2018-01-27T12:30:28.153Z,12.77
2018-01-27T12:32:55.630Z,13.20
2018-01-27T12:35:23.099Z,11.63
2018-01-27T12:37:51.362Z,11.80
2018-01-27T12:40:18.829Z,12.57
2018-01-27T12:42:46.569Z,11.60
2018-01-27T12:45:14.034Z,10.77
2018-01-27T12:47:41.498Z,9.23
2018-01-27T12:50:08.966Z,9.90
2018-01-27T12:52:36.420Z,9.80
2018-01-27T12:55:03.940Z,11.30
2018-01-27T12:57:31.420Z,10.83
2018-01-27T12:59:59.274Z,9.60
2018-01-27T13:02:26.750Z,10.60
2018-01-27T13:04:54.235Z,10.03
2018-01-27T13:07:21.695Z,11.10
2018-01-27T13:09:49.165Z,8.97
2018-01-27T13:12:16.620Z,10.57
2018-01-27T13:14:44.080Z,9.37
2018-01-27T13:17:11.533Z,10.73
2018-01-27T13:19:39.783Z,9.77
2018-01-27T13:22:07.285Z,8.60
2018-01-27T13:24:35.562Z,9.60
2018-01-27T13:27:03.785Z,8.17
2018-01-27T13:29:31.283Z,9.17
2018-01-27T13:31:58.725Z,7.60
2018-01-27T13:34:26.172Z,7.77
2018-01-27T13:36:53.627Z,6.40
2018-01-27T13:39:21.088Z,7.20
2018-01-27T13:41:48.532Z,6.67
2018-01-27T13:44:15.996Z,6.20
2018-01-27T13:46:43.482Z,6.07
2018-01-27T13:49:11.710Z,6.30
2018-01-27T13:51:39.157Z,5.13
2018-01-27T13:54:06.608Z,4.63
2018-01-27T13:56:34.078Z,4.30
2018-01-27T13:59:02.334Z,4.20
2018-01-27T14:01:29.777Z,5.10
2018-01-27T14:03:57.621Z,6.67
2018-01-27T14:06:25.847Z,6.90
2018-01-27T14:08:53.298Z,6.90
2018-01-27T14:11:20.765Z,6.77
2018-01-27T14:13:48.222Z,6.30
2018-01-27T14:16:15.713Z,6.50
2018-01-27T14:18:43.144Z,6.23
2018-01-27T14:21:10.592Z,5.83
2018-01-27T14:23:38.039Z,6.60
2018-01-27T14:26:05.507Z,6.73
2018-01-27T14:28:32.966Z,6.33
2018-01-27T14:31:00.492Z,7.10
2018-01-27T14:33:27.937Z,8.77
2018-01-27T14:35:55.404Z,7.60
2018-01-27T14:38:22.870Z,7.80
2018-01-27T14:40:50.343Z,8.27
2018-01-27T14:43:17.910Z,8.17
2018-01-27T14:45:45.403Z,8.77
2018-01-27T14:48:12.867Z,10.43
2018-01-27T14:50:41.087Z,10.17
2018-01-27T14:53:08.572Z,9.53
2018-01-27T14:55:36.052Z,9.07
2018-01-27T14:58:04.279Z,10.10
2018-01-27T15:00:37.673Z,10.50
2018-01-27T15:03:05.532Z,11.23
2018-01-27T15:05:33.003Z,10.77
2018-01-27T15:08:00.464Z,9.97
2018-01-27T15:10:27.954Z,8.93
2018-01-27T15:12:56.190Z,9.03
2018-01-27T15:15:23.694Z,9.90
2018-01-27T15:17:51.612Z,10.37
2018-01-27T15:20:19.134Z,10.40
2018-01-27T15:22:46.527Z,9.67
2018-01-27T15:25:13.996Z,10.40
2018-01-27T15:27:41.470Z,10.30
2018-01-27T15:30:08.953Z,11.23
2018-01-27T15:32:37.211Z,10.10
2018-01-27T15:35:04.722Z,10.67
2018-01-27T15:37:32.210Z,10.10
2018-01-27T15:39:59.723Z,10.80
2018-01-27T15:42:27.206Z,10.40
2018-01-27T15:44:54.645Z,12.13
2018-01-27T15:47:22.097Z,11.17
2018-01-27T15:49:49.594Z,10.87
2018-01-27T15:52:17.053Z,11.70
2018-01-27T15:54:44.892Z,13.17
2018-01-27T15:57:13.145Z,16.10
2018-01-27T15:59:40.650Z,17.70
2018-01-27T16:02:08.977Z,17.53
2018-01-27T16:04:36.442Z,18.03
2018-01-27T16:07:03.891Z,17.43
2018-01-27T16:09:31.415Z,17.73
2018-01-27T16:11:58.927Z,18.67
2018-01-27T16:14:26.364Z,20.77
2018-01-27T16:16:53.859Z,20.83
2018-01-27T16:19:21.322Z,20.20
2018-01-27T16:21:48.769Z,22.27
2018-01-27T16:24:16.219Z,94.30
2018-01-27T16:26:43.682Z,27.83
2018-01-27T16:29:11.194Z,25.33
2018-01-27T16:31:38.646Z,19.97
2018-01-27T16:34:06.151Z,18.57
2018-01-27T16:36:33.605Z,19.00
2018-01-27T16:39:01.110Z,18.90
2018-01-27T16:41:29.329Z,18.63
2018-01-27T16:43:56.836Z,17.37
2018-01-27T16:46:24.289Z,18.83
2018-01-27T16:48:51.778Z,19.30
2018-01-27T16:51:19.277Z,19.33
2018-01-27T16:53:46.728Z,21.47
2018-01-27T16:56:14.200Z,30.20
2018-01-27T16:58:41.663Z,35.00
2018-01-27T17:01:09.131Z,29.93
2018-01-27T17:03:36.599Z,51.00
2018-01-27T17:06:04.884Z,49.50
2018-01-27T17:08:33.130Z,45.47
2018-01-27T17:11:00.621Z,36.63
2018-01-27T17:13:28.897Z,23.70
2018-01-27T17:15:56.346Z,24.57
2018-01-27T17:18:24.693Z,24.67
2018-01-27T17:20:52.183Z,29.23
2018-01-27T17:23:20.408Z,30.47
2018-01-27T17:25:47.916Z,29.83
2018-01-27T17:28:16.172Z,32.60
2018-01-27T17:30:43.664Z,28.90
2018-01-27T17:33:11.876Z,26.23
2018-01-27T17:35:39.357Z,27.20
2018-01-27T17:38:06.885Z,30.80
2018-01-27T17:40:34.377Z,32.90
2018-01-27T17:43:01.831Z,34.20
2018-01-27T17:45:29.289Z,34.90
2018-01-27T17:47:56.732Z,30.97
2018-01-27T17:50:24.188Z,31.60
2018-01-27T17:52:51.717Z,24.60
2018-01-27T17:55:19.206Z,23.90
2018-01-27T17:57:46.719Z,22.20
2018-01-27T18:00:14.162Z,26.00
2018-01-27T18:02:41.610Z,24.00
2018-01-27T18:05:09.059Z,26.77
2018-01-27T18:07:37.339Z,23.27
2018-01-27T18:10:05.652Z,21.07
2018-01-27T18:12:33.071Z,21.30
2018-01-27T18:15:01.339Z,21.50
2018-01-27T18:17:28.775Z,22.97
2018-01-27T18:19:56.302Z,24.80
2018-01-27T18:22:23.767Z,51.00
2018-01-27T18:24:51.321Z,30.40
2018-01-27T18:27:18.739Z,36.30
2018-01-27T18:29:46.242Z,37.43
2018-01-27T18:32:13.746Z,34.73
2018-01-27T18:34:41.964Z,45.10
2018-01-27T18:37:10.249Z,45.77
2018-01-27T18:39:37.742Z,46.80
2018-01-27T18:42:06.013Z,39.57
2018-01-27T18:44:33.464Z,36.97
2018-01-27T18:47:00.967Z,34.93
2018-01-27T18:49:28.408Z,33.77
2018-01-27T18:51:55.871Z,32.87
2018-01-27T18:54:23.329Z,32.77
2018-01-27T18:56:50.794Z,31.13
2018-01-27T18:59:18.296Z,31.60
2018-01-27T19:01:45.799Z,29.37
2018-01-27T19:04:14.073Z,29.70
2018-01-27T19:06:41.575Z,30.57
2018-01-27T19:09:09.070Z,28.03
2018-01-27T19:11:36.564Z,30.87
2018-01-27T19:14:04.025Z,35.37
2018-01-27T19:16:31.519Z,34.27
2018-01-27T19:18:59.054Z,33.97
2018-01-27T19:21:26.506Z,35.63
2018-01-27T19:23:54.739Z,34.03
2018-01-27T19:26:22.226Z,30.50
2018-01-27T19:28:49.729Z,36.37
2018-01-27T19:31:17.232Z,31.90
2018-01-27T19:33:44.757Z,34.60
2018-01-27T19:36:12.166Z,32.80
2018-01-27T19:38:39.638Z,32.13
2018-01-27T19:41:07.145Z,31.70
2018-01-27T19:43:35.392Z,30.60
2018-01-27T19:46:02.900Z,33.60
2018-01-27T19:48:30.398Z,35.30
2018-01-27T19:50:57.902Z,45.33
2018-01-27T19:53:25.405Z,44.93
2018-01-27T19:55:53.676Z,42.57
2018-01-27T19:58:21.186Z,40.00
2018-01-27T20:00:48.705Z,38.73
2018-01-27T20:03:16.972Z,36.83
2018-01-27T20:05:44.419Z,35.57
2018-01-27T20:08:11.939Z,29.90
2018-01-27T20:10:39.401Z,35.20
2018-01-27T20:13:07.294Z,34.53
2018-01-27T20:15:35.197Z,32.97
2018-01-27T20:18:02.870Z,37.20
2018-01-27T20:20:31.097Z,30.47
2018-01-27T20:22:58.602Z,31.17
2018-01-27T20:25:26.051Z,31.60
2018-01-27T20:27:53.563Z,32.10
2018-01-27T20:30:21.031Z,32.60
2018-01-27T20:32:48.948Z,33.10
2018-01-27T20:35:17.175Z,32.00
2018-01-27T20:37:44.676Z,36.43
2018-01-27T20:40:12.179Z,35.53
2018-01-27T20:42:39.640Z,35.37
2018-01-27T20:45:07.154Z,35.63
2018-01-27T20:47:35.407Z,40.40
2018-01-27T20:50:02.916Z,51.07
2018-01-27T20:52:30.367Z,46.47
2018-01-27T20:54:57.882Z,47.33
2018-01-27T20:57:25.396Z,49.60
2018-01-27T20:59:52.899Z,38.97
2018-01-27T21:02:20.409Z,42.60
2018-01-27T21:04:47.876Z,36.67
2018-01-27T21:07:15.344Z,40.07
2018-01-27T21:09:42.858Z,36.83
2018-01-27T21:12:10.754Z,35.60
2018-01-27T21:14:38.230Z,32.63
2018-01-27T21:17:05.725Z,37.07
2018-01-27T21:19:33.992Z,33.10
2018-01-27T21:22:01.488Z,39.40
2018-01-27T21:24:28.941Z,34.50
2018-01-27T21:26:56.451Z,32.03
2018-01-27T21:29:23.997Z,38.23
2018-01-27T21:31:51.445Z,33.23
2018-01-27T21:34:18.940Z,33.90
2018-01-27T21:36:46.439Z,33.20
2018-01-27T21:39:13.915Z,30.77
2018-01-27T21:41:41.408Z,30.60
2018-01-27T21:44:08.909Z,32.37
2018-01-27T21:46:36.400Z,29.90
2018-01-27T21:49:03.906Z,30.30
2018-01-27T21:51:31.414Z,27.87
2018-01-27T21:53:58.921Z,30.47
2018-01-27T21:56:26.429Z,28.13
2018-01-27T21:58:53.931Z,26.93
2018-01-27T22:01:22.195Z,24.90
2018-01-27T22:03:50.455Z,32.67
2018-01-27T22:06:17.977Z,35.37
2018-01-27T22:08:45.477Z,33.20
2018-01-27T22:11:12.966Z,31.00
2018-01-27T22:13:40.461Z,31.57
2018-01-27T22:16:07.954Z,31.63
2018-01-27T22:18:35.441Z,31.17
2018-01-27T22:21:03.296Z,31.30
2018-01-27T22:23:30.876Z,29.87
2018-01-27T22:25:58.374Z,31.90
2018-01-27T22:28:25.871Z,32.00
2018-01-27T22:30:54.134Z,29.57
2018-01-27T22:33:22.354Z,30.67
2018-01-27T22:35:49.854Z,31.57
2018-01-27T22:38:17.351Z,31.67
2018-01-27T22:40:44.906Z,31.70
2018-01-27T22:43:12.378Z,29.03
2018-01-27T22:45:39.882Z,29.00
2018-01-27T22:48:07.379Z,27.10
2018-01-27T22:50:34.893Z,27.67
2018-01-27T22:53:02.371Z,25.20
2018-01-27T22:55:30.224Z,25.20
2018-01-27T22:57:58.128Z,28.27
2018-01-27T23:00:25.619Z,28.47
2018-01-27T23:02:53.116Z,32.80
2018-01-27T23:05:21.373Z,31.17
2018-01-27T23:07:48.828Z,33.73
2018-01-27T23:10:16.326Z,31.20
2018-01-27T23:12:43.784Z,30.37
2018-01-27T23:15:11.310Z,29.83
2018-01-27T23:17:38.785Z,29.03
2018-01-27T23:20:07.007Z,29.77
2018-01-27T23:22:34.468Z,29.00
2018-01-27T23:25:01.998Z,30.17
2018-01-27T23:27:29.490Z,29.20
2018-01-27T23:29:56.947Z,27.87
2018-01-27T23:32:24.397Z,31.07
2018-01-27T23:34:51.859Z,28.33
2018-01-27T23:37:19.319Z,29.37
2018-01-27T23:39:46.824Z,29.47
2018-01-27T23:42:15.024Z,30.00
2018-01-27T23:44:42.541Z,28.70
2018-01-27T23:47:10.836Z,28.53
2018-01-27T23:49:38.298Z,28.60
2018-01-27T23:52:06.162Z,30.30
2018-01-27T23:54:33.663Z,29.67
2018-01-27T23:57:01.113Z,31.00
2018-01-27T23:59:28.575Z,29.57
